sensor_id;sensor_type;location;lat;lon;timestamp;P1;durP1;ratioP1;P2;durP2;ratioP2
4915;SDS011;70796;52.406;13.230;2024-01-30T00:00:04;14.50;;;8.23;;
4915;SDS011;70796;52.406;13.230;2024-01-30T00:02:31;15.77;;;7.63;;
4915;SDS011;70796;52.406;13.230;2024-01-30T00:04:58;12.60;;;7.67;;
4915;SDS011;70796;52.406;13.230;2024-01-30T00:07:24;12.40;;;7.77;;
4915;SDS011;70796;52.406;13.230;2024-01-30T00:09:50;15.93;;;8.20;;
4915;SDS011;70796;52.406;13.230;2024-01-30T00:12:17;12.93;;;7.73;;
4915;SDS011;70796;52.406;13.230;2024-01-30T00:14:43;13.47;;;8.50;;
4915;SDS011;70796;52.406;13.230;2024-01-30T00:17:09;13.00;;;7.80;;
4915;SDS011;70796;52.406;13.230;2024-01-30T00:19:36;14.87;;;7.30;;
4915;SDS011;70796;52.406;13.230;2024-01-30T00:22:02;13.63;;;7.50;;
4915;SDS011;70796;52.406;13.230;2024-01-30T00:24:31;11.53;;;7.27;;
4915;SDS011;70796;52.406;13.230;2024-01-30T00:26:58;10.87;;;7.13;;
4915;SDS011;70796;52.406;13.230;2024-01-30T00:29:25;11.27;;;6.83;;
4915;SDS011;70796;52.406;13.230;2024-01-30T00:31:56;13.60;;;8.00;;
4915;SDS011;70796;52.406;13.230;2024-01-30T00:34:22;12.00;;;6.57;;
4915;SDS011;70796;52.406;13.230;2024-01-30T00:36:50;12.67;;;6.80;;
4915;SDS011;70796;52.406;13.230;2024-01-30T00:39:17;11.03;;;6.80;;
4915;SDS011;70796;52.406;13.230;2024-01-30T00:41:46;10.60;;;6.90;;
4915;SDS011;70796;52.406;13.230;2024-01-30T00:44:12;11.50;;;6.70;;
4915;SDS011;70796;52.406;13.230;2024-01-30T00:46:39;12.17;;;6.70;;
4915;SDS011;70796;52.406;13.230;2024-01-30T00:49:05;12.17;;;6.40;;
4915;SDS011;70796;52.406;13.230;2024-01-30T00:51:32;10.60;;;6.20;;
4915;SDS011;70796;52.406;13.230;2024-01-30T00:53:59;13.93;;;7.53;;
4915;SDS011;70796;52.406;13.230;2024-01-30T00:56:26;12.90;;;6.87;;
4915;SDS011;70796;52.406;13.230;2024-01-30T00:58:56;13.27;;;6.20;;
4915;SDS011;70796;52.406;13.230;2024-01-30T01:01:22;12.00;;;6.73;;
4915;SDS011;70796;52.406;13.230;2024-01-30T01:03:48;10.57;;;6.40;;
4915;SDS011;70796;52.406;13.230;2024-01-30T01:06:16;9.53;;;6.20;;
4915;SDS011;70796;52.406;13.230;2024-01-30T01:08:43;10.00;;;5.90;;
4915;SDS011;70796;52.406;13.230;2024-01-30T01:11:10;10.90;;;6.37;;
4915;SDS011;70796;52.406;13.230;2024-01-30T01:13:37;9.47;;;5.40;;
4915;SDS011;70796;52.406;13.230;2024-01-30T01:16:03;11.50;;;5.90;;
4915;SDS011;70796;52.406;13.230;2024-01-30T01:18:30;13.87;;;5.27;;
4915;SDS011;70796;52.406;13.230;2024-01-30T01:20:58;12.33;;;5.93;;
4915;SDS011;70796;52.406;13.230;2024-01-30T01:23:25;14.23;;;6.30;;
4915;SDS011;70796;52.406;13.230;2024-01-30T01:25:52;7.37;;;5.30;;
4915;SDS011;70796;52.406;13.230;2024-01-30T01:28:23;10.00;;;5.60;;
4915;SDS011;70796;52.406;13.230;2024-01-30T01:30:50;8.80;;;6.37;;
4915;SDS011;70796;52.406;13.230;2024-01-30T01:33:16;13.80;;;6.27;;
4915;SDS011;70796;52.406;13.230;2024-01-30T01:35:45;13.33;;;5.87;;
4915;SDS011;70796;52.406;13.230;2024-01-30T01:38:11;8.87;;;5.70;;
4915;SDS011;70796;52.406;13.230;2024-01-30T01:40:37;10.23;;;6.13;;
4915;SDS011;70796;52.406;13.230;2024-01-30T01:43:05;12.00;;;5.97;;
4915;SDS011;70796;52.406;13.230;2024-01-30T01:45:32;15.33;;;6.60;;
4915;SDS011;70796;52.406;13.230;2024-01-30T01:47:59;12.73;;;6.00;;
4915;SDS011;70796;52.406;13.230;2024-01-30T01:50:25;13.13;;;5.97;;
4915;SDS011;70796;52.406;13.230;2024-01-30T01:52:53;9.50;;;5.73;;
4915;SDS011;70796;52.406;13.230;2024-01-30T01:55:21;11.07;;;5.27;;
4915;SDS011;70796;52.406;13.230;2024-01-30T01:57:52;9.87;;;5.87;;
4915;SDS011;70796;52.406;13.230;2024-01-30T02:00:18;10.63;;;6.63;;
4915;SDS011;70796;52.406;13.230;2024-01-30T02:02:46;8.37;;;5.80;;
4915;SDS011;70796;52.406;13.230;2024-01-30T02:05:14;10.70;;;5.83;;
4915;SDS011;70796;52.406;13.230;2024-01-30T02:07:40;13.23;;;6.47;;
4915;SDS011;70796;52.406;13.230;2024-01-30T02:10:07;8.90;;;5.67;;
4915;SDS011;70796;52.406;13.230;2024-01-30T02:12:37;10.13;;;6.60;;
4915;SDS011;70796;52.406;13.230;2024-01-30T02:15:06;8.80;;;5.80;;
4915;SDS011;70796;52.406;13.230;2024-01-30T02:17:34;7.60;;;5.13;;
4915;SDS011;70796;52.406;13.230;2024-01-30T02:20:01;9.80;;;5.87;;
4915;SDS011;70796;52.406;13.230;2024-01-30T02:22:27;8.93;;;5.90;;
4915;SDS011;70796;52.406;13.230;2024-01-30T02:24:54;15.60;;;5.80;;
4915;SDS011;70796;52.406;13.230;2024-01-30T02:27:20;8.57;;;5.73;;
4915;SDS011;70796;52.406;13.230;2024-01-30T02:29:48;8.77;;;5.43;;
4915;SDS011;70796;52.406;13.230;2024-01-30T02:32:15;10.20;;;6.10;;
4915;SDS011;70796;52.406;13.230;2024-01-30T02:34:41;11.60;;;6.60;;
4915;SDS011;70796;52.406;13.230;2024-01-30T02:37:07;10.83;;;6.10;;
4915;SDS011;70796;52.406;13.230;2024-01-30T02:39:34;8.53;;;5.60;;
4915;SDS011;70796;52.406;13.230;2024-01-30T02:42:01;11.20;;;6.70;;
4915;SDS011;70796;52.406;13.230;2024-01-30T02:44:27;12.03;;;6.77;;
4915;SDS011;70796;52.406;13.230;2024-01-30T02:46:54;7.57;;;5.40;;
4915;SDS011;70796;52.406;13.230;2024-01-30T02:49:21;10.50;;;6.57;;
4915;SDS011;70796;52.406;13.230;2024-01-30T02:51:48;9.60;;;5.90;;
4915;SDS011;70796;52.406;13.230;2024-01-30T02:54:15;11.37;;;5.73;;
4915;SDS011;70796;52.406;13.230;2024-01-30T02:56:43;11.23;;;6.10;;
4915;SDS011;70796;52.406;13.230;2024-01-30T02:59:09;10.17;;;6.37;;
4915;SDS011;70796;52.406;13.230;2024-01-30T03:01:45;7.30;;;5.30;;
4915;SDS011;70796;52.406;13.230;2024-01-30T03:04:12;9.87;;;5.97;;
4915;SDS011;70796;52.406;13.230;2024-01-30T03:06:44;8.37;;;5.53;;
4915;SDS011;70796;52.406;13.230;2024-01-30T03:09:12;8.57;;;6.00;;
4915;SDS011;70796;52.406;13.230;2024-01-30T03:11:40;10.30;;;5.60;;
4915;SDS011;70796;52.406;13.230;2024-01-30T03:14:07;9.60;;;5.53;;
4915;SDS011;70796;52.406;13.230;2024-01-30T03:16:34;9.43;;;5.80;;
4915;SDS011;70796;52.406;13.230;2024-01-30T03:19:00;15.33;;;6.27;;
4915;SDS011;70796;52.406;13.230;2024-01-30T03:21:28;9.30;;;5.90;;
4915;SDS011;70796;52.406;13.230;2024-01-30T03:23:54;9.70;;;6.43;;
4915;SDS011;70796;52.406;13.230;2024-01-30T03:26:21;9.47;;;5.53;;
4915;SDS011;70796;52.406;13.230;2024-01-30T03:28:47;8.43;;;5.90;;
4915;SDS011;70796;52.406;13.230;2024-01-30T03:31:14;9.97;;;6.00;;
4915;SDS011;70796;52.406;13.230;2024-01-30T03:33:41;11.83;;;7.20;;
4915;SDS011;70796;52.406;13.230;2024-01-30T03:36:10;12.43;;;6.20;;
4915;SDS011;70796;52.406;13.230;2024-01-30T03:38:37;13.40;;;6.30;;
4915;SDS011;70796;52.406;13.230;2024-01-30T03:41:03;13.30;;;6.70;;
4915;SDS011;70796;52.406;13.230;2024-01-30T03:43:29;9.20;;;5.60;;
4915;SDS011;70796;52.406;13.230;2024-01-30T03:45:59;12.17;;;6.83;;
4915;SDS011;70796;52.406;13.230;2024-01-30T03:48:27;9.37;;;5.80;;
4915;SDS011;70796;52.406;13.230;2024-01-30T03:50:53;11.00;;;5.90;;
4915;SDS011;70796;52.406;13.230;2024-01-30T03:53:19;9.60;;;6.47;;
4915;SDS011;70796;52.406;13.230;2024-01-30T03:55:46;13.60;;;6.37;;
4915;SDS011;70796;52.406;13.230;2024-01-30T03:58:13;10.33;;;5.63;;
4915;SDS011;70796;52.406;13.230;2024-01-30T04:00:40;11.70;;;6.30;;
4915;SDS011;70796;52.406;13.230;2024-01-30T04:03:07;9.57;;;5.83;;
4915;SDS011;70796;52.406;13.230;2024-01-30T04:05:34;10.67;;;6.30;;
4915;SDS011;70796;52.406;13.230;2024-01-30T04:08:01;15.70;;;6.13;;
4915;SDS011;70796;52.406;13.230;2024-01-30T04:10:28;13.67;;;6.27;;
4915;SDS011;70796;52.406;13.230;2024-01-30T04:12:55;12.93;;;6.53;;
4915;SDS011;70796;52.406;13.230;2024-01-30T04:15:22;14.37;;;6.20;;
4915;SDS011;70796;52.406;13.230;2024-01-30T04:17:48;9.00;;;6.33;;
4915;SDS011;70796;52.406;13.230;2024-01-30T04:20:15;13.83;;;6.47;;
4915;SDS011;70796;52.406;13.230;2024-01-30T04:22:43;13.20;;;6.03;;
4915;SDS011;70796;52.406;13.230;2024-01-30T04:25:09;9.80;;;6.03;;
4915;SDS011;70796;52.406;13.230;2024-01-30T04:27:35;10.70;;;6.43;;
4915;SDS011;70796;52.406;13.230;2024-01-30T04:30:02;9.47;;;5.73;;
4915;SDS011;70796;52.406;13.230;2024-01-30T04:32:29;14.87;;;6.00;;
4915;SDS011;70796;52.406;13.230;2024-01-30T04:34:55;10.10;;;6.17;;
4915;SDS011;70796;52.406;13.230;2024-01-30T04:37:22;10.33;;;6.17;;
4915;SDS011;70796;52.406;13.230;2024-01-30T04:39:49;10.37;;;6.07;;
4915;SDS011;70796;52.406;13.230;2024-01-30T04:42:16;9.07;;;5.67;;
4915;SDS011;70796;52.406;13.230;2024-01-30T04:44:42;11.33;;;5.60;;
4915;SDS011;70796;52.406;13.230;2024-01-30T04:47:09;9.33;;;6.17;;
4915;SDS011;70796;52.406;13.230;2024-01-30T04:49:38;8.57;;;5.70;;
4915;SDS011;70796;52.406;13.230;2024-01-30T04:52:08;8.43;;;6.07;;
4915;SDS011;70796;52.406;13.230;2024-01-30T04:54:35;9.53;;;5.90;;
4915;SDS011;70796;52.406;13.230;2024-01-30T04:57:02;15.13;;;5.90;;
4915;SDS011;70796;52.406;13.230;2024-01-30T04:59:29;10.60;;;5.97;;
4915;SDS011;70796;52.406;13.230;2024-01-30T05:01:55;12.53;;;6.63;;
4915;SDS011;70796;52.406;13.230;2024-01-30T05:04:22;10.27;;;6.33;;
4915;SDS011;70796;52.406;13.230;2024-01-30T05:06:50;12.77;;;6.60;;
4915;SDS011;70796;52.406;13.230;2024-01-30T05:09:16;10.20;;;5.90;;
4915;SDS011;70796;52.406;13.230;2024-01-30T05:11:43;10.77;;;6.37;;
4915;SDS011;70796;52.406;13.230;2024-01-30T05:14:11;9.37;;;6.30;;
4915;SDS011;70796;52.406;13.230;2024-01-30T05:16:38;10.97;;;6.00;;
4915;SDS011;70796;52.406;13.230;2024-01-30T05:19:05;10.07;;;5.90;;
4915;SDS011;70796;52.406;13.230;2024-01-30T05:21:31;7.63;;;5.60;;
4915;SDS011;70796;52.406;13.230;2024-01-30T05:23:58;9.70;;;5.90;;
4915;SDS011;70796;52.406;13.230;2024-01-30T05:26:25;11.23;;;5.50;;
4915;SDS011;70796;52.406;13.230;2024-01-30T05:28:52;8.97;;;6.53;;
4915;SDS011;70796;52.406;13.230;2024-01-30T05:31:19;11.33;;;5.97;;
4915;SDS011;70796;52.406;13.230;2024-01-30T05:33:47;8.97;;;5.40;;
4915;SDS011;70796;52.406;13.230;2024-01-30T05:36:14;9.53;;;6.23;;
4915;SDS011;70796;52.406;13.230;2024-01-30T05:38:41;10.90;;;6.40;;
4915;SDS011;70796;52.406;13.230;2024-01-30T05:41:08;12.90;;;6.13;;
4915;SDS011;70796;52.406;13.230;2024-01-30T05:43:34;12.47;;;5.77;;
4915;SDS011;70796;52.406;13.230;2024-01-30T05:46:01;12.53;;;5.70;;
4915;SDS011;70796;52.406;13.230;2024-01-30T05:48:27;11.00;;;5.97;;
4915;SDS011;70796;52.406;13.230;2024-01-30T05:50:54;9.27;;;6.13;;
4915;SDS011;70796;52.406;13.230;2024-01-30T05:53:21;10.47;;;5.93;;
4915;SDS011;70796;52.406;13.230;2024-01-30T05:55:47;9.97;;;6.00;;
4915;SDS011;70796;52.406;13.230;2024-01-30T05:58:14;8.37;;;6.30;;
4915;SDS011;70796;52.406;13.230;2024-01-30T06:00:41;8.93;;;5.57;;
4915;SDS011;70796;52.406;13.230;2024-01-30T06:03:09;9.87;;;6.50;;
4915;SDS011;70796;52.406;13.230;2024-01-30T06:05:36;7.50;;;5.50;;
4915;SDS011;70796;52.406;13.230;2024-01-30T06:08:03;8.27;;;6.10;;
4915;SDS011;70796;52.406;13.230;2024-01-30T06:10:30;12.33;;;6.40;;
4915;SDS011;70796;52.406;13.230;2024-01-30T06:12:56;12.37;;;6.13;;
4915;SDS011;70796;52.406;13.230;2024-01-30T06:15:23;9.97;;;5.70;;
4915;SDS011;70796;52.406;13.230;2024-01-30T06:17:49;12.93;;;6.47;;
4915;SDS011;70796;52.406;13.230;2024-01-30T06:20:15;12.40;;;6.80;;
4915;SDS011;70796;52.406;13.230;2024-01-30T06:22:43;12.97;;;6.10;;
4915;SDS011;70796;52.406;13.230;2024-01-30T06:25:09;9.67;;;6.50;;
4915;SDS011;70796;52.406;13.230;2024-01-30T06:27:36;9.20;;;6.33;;
4915;SDS011;70796;52.406;13.230;2024-01-30T06:30:04;11.17;;;6.77;;
4915;SDS011;70796;52.406;13.230;2024-01-30T06:32:30;12.23;;;6.70;;
4915;SDS011;70796;52.406;13.230;2024-01-30T06:35:01;13.13;;;6.70;;
4915;SDS011;70796;52.406;13.230;2024-01-30T06:37:28;9.40;;;6.97;;
4915;SDS011;70796;52.406;13.230;2024-01-30T06:39:54;11.93;;;6.93;;
4915;SDS011;70796;52.406;13.230;2024-01-30T06:42:21;10.70;;;6.47;;
4915;SDS011;70796;52.406;13.230;2024-01-30T06:44:47;10.60;;;5.97;;
4915;SDS011;70796;52.406;13.230;2024-01-30T06:47:15;15.40;;;6.57;;
4915;SDS011;70796;52.406;13.230;2024-01-30T06:49:42;9.93;;;5.87;;
4915;SDS011;70796;52.406;13.230;2024-01-30T06:52:10;9.60;;;6.43;;
4915;SDS011;70796;52.406;13.230;2024-01-30T06:54:37;9.70;;;6.77;;
4915;SDS011;70796;52.406;13.230;2024-01-30T06:57:03;11.87;;;6.77;;
4915;SDS011;70796;52.406;13.230;2024-01-30T06:59:31;12.13;;;6.70;;
4915;SDS011;70796;52.406;13.230;2024-01-30T07:01:57;9.87;;;6.17;;
4915;SDS011;70796;52.406;13.230;2024-01-30T07:04:24;9.97;;;6.07;;
4915;SDS011;70796;52.406;13.230;2024-01-30T07:06:50;9.17;;;6.63;;
4915;SDS011;70796;52.406;13.230;2024-01-30T07:09:17;14.57;;;6.30;;
4915;SDS011;70796;52.406;13.230;2024-01-30T07:11:43;8.63;;;6.13;;
4915;SDS011;70796;52.406;13.230;2024-01-30T07:14:09;10.87;;;6.07;;
4915;SDS011;70796;52.406;13.230;2024-01-30T07:16:38;8.73;;;6.13;;
4915;SDS011;70796;52.406;13.230;2024-01-30T07:19:04;10.77;;;5.90;;
4915;SDS011;70796;52.406;13.230;2024-01-30T07:21:31;12.80;;;6.80;;
4915;SDS011;70796;52.406;13.230;2024-01-30T07:23:59;11.23;;;6.53;;
4915;SDS011;70796;52.406;13.230;2024-01-30T07:26:25;13.20;;;7.00;;
4915;SDS011;70796;52.406;13.230;2024-01-30T07:28:52;12.43;;;7.30;;
4915;SDS011;70796;52.406;13.230;2024-01-30T07:31:18;13.50;;;6.17;;
4915;SDS011;70796;52.406;13.230;2024-01-30T07:33:48;11.13;;;7.17;;
4915;SDS011;70796;52.406;13.230;2024-01-30T07:36:15;17.70;;;8.00;;
4915;SDS011;70796;52.406;13.230;2024-01-30T07:38:42;12.87;;;6.80;;
4915;SDS011;70796;52.406;13.230;2024-01-30T07:41:08;12.43;;;6.67;;
4915;SDS011;70796;52.406;13.230;2024-01-30T07:43:34;12.10;;;6.57;;
4915;SDS011;70796;52.406;13.230;2024-01-30T07:46:02;12.63;;;6.47;;
4915;SDS011;70796;52.406;13.230;2024-01-30T07:48:29;9.20;;;6.33;;
4915;SDS011;70796;52.406;13.230;2024-01-30T07:50:59;9.70;;;6.63;;
4915;SDS011;70796;52.406;13.230;2024-01-30T07:53:27;13.23;;;7.17;;
4915;SDS011;70796;52.406;13.230;2024-01-30T07:55:55;9.43;;;6.20;;
4915;SDS011;70796;52.406;13.230;2024-01-30T07:58:21;14.73;;;7.23;;
4915;SDS011;70796;52.406;13.230;2024-01-30T08:00:48;9.40;;;6.20;;
4915;SDS011;70796;52.406;13.230;2024-01-30T08:03:14;8.77;;;6.40;;
4915;SDS011;70796;52.406;13.230;2024-01-30T08:05:43;12.80;;;6.70;;
4915;SDS011;70796;52.406;13.230;2024-01-30T08:08:09;12.83;;;6.50;;
4915;SDS011;70796;52.406;13.230;2024-01-30T08:10:35;9.67;;;6.60;;
4915;SDS011;70796;52.406;13.230;2024-01-30T08:13:02;11.57;;;6.30;;
4915;SDS011;70796;52.406;13.230;2024-01-30T08:15:29;10.63;;;6.80;;
4915;SDS011;70796;52.406;13.230;2024-01-30T08:17:56;15.13;;;7.00;;
4915;SDS011;70796;52.406;13.230;2024-01-30T08:20:24;15.77;;;8.47;;
4915;SDS011;70796;52.406;13.230;2024-01-30T08:22:51;38.30;;;11.60;;
4915;SDS011;70796;52.406;13.230;2024-01-30T08:25:17;19.00;;;9.00;;
4915;SDS011;70796;52.406;13.230;2024-01-30T08:27:44;14.40;;;8.00;;
4915;SDS011;70796;52.406;13.230;2024-01-30T08:30:11;16.80;;;6.83;;
4915;SDS011;70796;52.406;13.230;2024-01-30T08:32:38;20.07;;;6.97;;
4915;SDS011;70796;52.406;13.230;2024-01-30T08:35:04;12.10;;;7.00;;
4915;SDS011;70796;52.406;13.230;2024-01-30T08:37:30;14.77;;;6.87;;
4915;SDS011;70796;52.406;13.230;2024-01-30T08:39:57;13.33;;;6.73;;
4915;SDS011;70796;52.406;13.230;2024-01-30T08:42:25;11.63;;;6.50;;
4915;SDS011;70796;52.406;13.230;2024-01-30T08:44:52;11.87;;;7.00;;
4915;SDS011;70796;52.406;13.230;2024-01-30T08:47:19;11.83;;;7.27;;
4915;SDS011;70796;52.406;13.230;2024-01-30T08:52:53;11.80;;;6.60;;
4915;SDS011;70796;52.406;13.230;2024-01-30T08:55:20;16.70;;;7.10;;
4915;SDS011;70796;52.406;13.230;2024-01-30T08:57:48;10.80;;;6.67;;
4915;SDS011;70796;52.406;13.230;2024-01-30T09:00:15;13.87;;;6.50;;
4915;SDS011;70796;52.406;13.230;2024-01-30T09:02:41;9.70;;;7.00;;
4915;SDS011;70796;52.406;13.230;2024-01-30T09:05:07;10.53;;;6.57;;
4915;SDS011;70796;52.406;13.230;2024-01-30T09:07:34;19.40;;;6.90;;
4915;SDS011;70796;52.406;13.230;2024-01-30T09:10:00;11.90;;;6.93;;
4915;SDS011;70796;52.406;13.230;2024-01-30T09:12:26;16.17;;;7.63;;
4915;SDS011;70796;52.406;13.230;2024-01-30T09:14:52;12.37;;;7.20;;
4915;SDS011;70796;52.406;13.230;2024-01-30T09:17:19;11.40;;;6.27;;
4915;SDS011;70796;52.406;13.230;2024-01-30T09:19:45;15.10;;;7.63;;
4915;SDS011;70796;52.406;13.230;2024-01-30T09:22:12;10.27;;;6.73;;
4915;SDS011;70796;52.406;13.230;2024-01-30T09:24:38;14.23;;;7.27;;
4915;SDS011;70796;52.406;13.230;2024-01-30T09:27:04;11.93;;;7.20;;
4915;SDS011;70796;52.406;13.230;2024-01-30T09:29:30;10.73;;;6.30;;
4915;SDS011;70796;52.406;13.230;2024-01-30T09:31:56;11.93;;;7.50;;
4915;SDS011;70796;52.406;13.230;2024-01-30T09:34:23;10.73;;;6.70;;
4915;SDS011;70796;52.406;13.230;2024-01-30T09:36:50;14.40;;;7.40;;
4915;SDS011;70796;52.406;13.230;2024-01-30T09:39:16;13.60;;;7.30;;
4915;SDS011;70796;52.406;13.230;2024-01-30T09:42:05;16.17;;;7.00;;
4915;SDS011;70796;52.406;13.230;2024-01-30T09:44:29;11.93;;;6.50;;
4915;SDS011;70796;52.406;13.230;2024-01-30T09:46:56;12.53;;;6.90;;
4915;SDS011;70796;52.406;13.230;2024-01-30T09:49:31;10.80;;;6.07;;
4915;SDS011;70796;52.406;13.230;2024-01-30T09:51:58;9.90;;;6.20;;
4915;SDS011;70796;52.406;13.230;2024-01-30T09:54:24;11.67;;;6.43;;
4915;SDS011;70796;52.406;13.230;2024-01-30T09:56:50;17.00;;;6.97;;
4915;SDS011;70796;52.406;13.230;2024-01-30T09:59:16;11.53;;;6.43;;
4915;SDS011;70796;52.406;13.230;2024-01-30T10:01:42;11.50;;;5.90;;
4915;SDS011;70796;52.406;13.230;2024-01-30T10:04:09;10.10;;;6.27;;
4915;SDS011;70796;52.406;13.230;2024-01-30T10:06:37;11.43;;;6.67;;
4915;SDS011;70796;52.406;13.230;2024-01-30T10:09:03;11.20;;;6.60;;
4915;SDS011;70796;52.406;13.230;2024-01-30T10:11:29;9.80;;;6.03;;
4915;SDS011;70796;52.406;13.230;2024-01-30T10:13:56;11.40;;;6.13;;
4915;SDS011;70796;52.406;13.230;2024-01-30T10:16:22;12.43;;;6.30;;
4915;SDS011;70796;52.406;13.230;2024-01-30T10:18:48;7.70;;;5.47;;
4915;SDS011;70796;52.406;13.230;2024-01-30T10:21:15;13.93;;;6.33;;
4915;SDS011;70796;52.406;13.230;2024-01-30T10:23:43;9.27;;;5.50;;
4915;SDS011;70796;52.406;13.230;2024-01-30T10:26:09;11.43;;;6.00;;
4915;SDS011;70796;52.406;13.230;2024-01-30T10:28:35;8.67;;;5.30;;
4915;SDS011;70796;52.406;13.230;2024-01-30T10:31:01;10.03;;;5.60;;
4915;SDS011;70796;52.406;13.230;2024-01-30T10:33:32;8.07;;;4.93;;
4915;SDS011;70796;52.406;13.230;2024-01-30T10:36:02;9.10;;;5.80;;
4915;SDS011;70796;52.406;13.230;2024-01-30T10:38:29;9.57;;;5.20;;
4915;SDS011;70796;52.406;13.230;2024-01-30T10:41:01;8.57;;;5.83;;
4915;SDS011;70796;52.406;13.230;2024-01-30T10:43:40;9.40;;;5.40;;
4915;SDS011;70796;52.406;13.230;2024-01-30T10:48:32;6.80;;;4.70;;
4915;SDS011;70796;52.406;13.230;2024-01-30T10:51:03;8.50;;;5.10;;
4915;SDS011;70796;52.406;13.230;2024-01-30T10:53:30;10.10;;;5.67;;
4915;SDS011;70796;52.406;13.230;2024-01-30T10:55:57;11.23;;;6.13;;
4915;SDS011;70796;52.406;13.230;2024-01-30T10:58:25;12.33;;;6.00;;
4915;SDS011;70796;52.406;13.230;2024-01-30T11:00:51;12.07;;;6.80;;
4915;SDS011;70796;52.406;13.230;2024-01-30T11:03:18;12.03;;;6.43;;
4915;SDS011;70796;52.406;13.230;2024-01-30T11:05:48;13.83;;;6.13;;
4915;SDS011;70796;52.406;13.230;2024-01-30T11:08:14;12.90;;;5.70;;
4915;SDS011;70796;52.406;13.230;2024-01-30T11:10:45;10.30;;;6.10;;
4915;SDS011;70796;52.406;13.230;2024-01-30T11:13:13;14.83;;;6.77;;
4915;SDS011;70796;52.406;13.230;2024-01-30T11:15:39;10.70;;;5.77;;
4915;SDS011;70796;52.406;13.230;2024-01-30T11:18:06;10.43;;;6.07;;
4915;SDS011;70796;52.406;13.230;2024-01-30T11:20:32;11.03;;;6.87;;
4915;SDS011;70796;52.406;13.230;2024-01-30T11:22:59;13.90;;;7.03;;
4915;SDS011;70796;52.406;13.230;2024-01-30T11:25:25;12.13;;;7.40;;
4915;SDS011;70796;52.406;13.230;2024-01-30T11:27:54;10.43;;;6.83;;
4915;SDS011;70796;52.406;13.230;2024-01-30T11:33:05;11.33;;;6.57;;
4915;SDS011;70796;52.406;13.230;2024-01-30T11:35:33;11.60;;;7.03;;
4915;SDS011;70796;52.406;13.230;2024-01-30T11:38:00;19.30;;;7.97;;
4915;SDS011;70796;52.406;13.230;2024-01-30T11:40:30;11.87;;;7.47;;
4915;SDS011;70796;52.406;13.230;2024-01-30T11:42:58;12.43;;;7.73;;
4915;SDS011;70796;52.406;13.230;2024-01-30T11:45:24;12.43;;;8.20;;
4915;SDS011;70796;52.406;13.230;2024-01-30T11:47:50;11.10;;;6.80;;
4915;SDS011;70796;52.406;13.230;2024-01-30T11:50:16;14.37;;;7.30;;
4915;SDS011;70796;52.406;13.230;2024-01-30T11:52:43;11.27;;;6.80;;
4915;SDS011;70796;52.406;13.230;2024-01-30T11:55:09;13.33;;;7.00;;
4915;SDS011;70796;52.406;13.230;2024-01-30T11:57:38;12.77;;;7.60;;
4915;SDS011;70796;52.406;13.230;2024-01-30T12:00:05;12.03;;;7.10;;
4915;SDS011;70796;52.406;13.230;2024-01-30T12:02:36;13.10;;;7.67;;
4915;SDS011;70796;52.406;13.230;2024-01-30T12:05:04;11.37;;;6.90;;
4915;SDS011;70796;52.406;13.230;2024-01-30T12:07:31;14.67;;;7.87;;
4915;SDS011;70796;52.406;13.230;2024-01-30T12:09:58;20.60;;;8.40;;
4915;SDS011;70796;52.406;13.230;2024-01-30T12:12:25;16.67;;;8.93;;
4915;SDS011;70796;52.406;13.230;2024-01-30T12:14:51;15.20;;;8.00;;
4915;SDS011;70796;52.406;13.230;2024-01-30T12:17:30;15.00;;;7.63;;
4915;SDS011;70796;52.406;13.230;2024-01-30T12:20:06;12.77;;;7.33;;
4915;SDS011;70796;52.406;13.230;2024-01-30T12:22:42;14.43;;;8.20;;
4915;SDS011;70796;52.406;13.230;2024-01-30T12:25:16;12.00;;;7.27;;
4915;SDS011;70796;52.406;13.230;2024-01-30T12:27:43;11.63;;;7.27;;
4915;SDS011;70796;52.406;13.230;2024-01-30T12:30:10;11.50;;;7.23;;
4915;SDS011;70796;52.406;13.230;2024-01-30T12:32:37;12.23;;;7.97;;
4915;SDS011;70796;52.406;13.230;2024-01-30T12:35:03;16.07;;;7.37;;
4915;SDS011;70796;52.406;13.230;2024-01-30T12:37:33;16.40;;;7.43;;
4915;SDS011;70796;52.406;13.230;2024-01-30T12:39:59;10.80;;;6.73;;
4915;SDS011;70796;52.406;13.230;2024-01-30T12:42:26;11.83;;;7.17;;
4915;SDS011;70796;52.406;13.230;2024-01-30T12:44:53;12.90;;;7.70;;
4915;SDS011;70796;52.406;13.230;2024-01-30T12:47:21;11.30;;;6.90;;
4915;SDS011;70796;52.406;13.230;2024-01-30T12:49:47;12.47;;;7.10;;
4915;SDS011;70796;52.406;13.230;2024-01-30T12:52:14;10.97;;;6.53;;
4915;SDS011;70796;52.406;13.230;2024-01-30T12:54:40;15.63;;;7.47;;
4915;SDS011;70796;52.406;13.230;2024-01-30T12:57:07;11.30;;;6.90;;
4915;SDS011;70796;52.406;13.230;2024-01-30T12:59:33;8.07;;;6.27;;
4915;SDS011;70796;52.406;13.230;2024-01-30T13:02:00;12.73;;;7.23;;
4915;SDS011;70796;52.406;13.230;2024-01-30T13:04:27;15.40;;;6.90;;
4915;SDS011;70796;52.406;13.230;2024-01-30T13:06:53;14.07;;;8.13;;
4915;SDS011;70796;52.406;13.230;2024-01-30T13:09:19;10.47;;;6.40;;
4915;SDS011;70796;52.406;13.230;2024-01-30T13:11:46;10.43;;;7.00;;
4915;SDS011;70796;52.406;13.230;2024-01-30T13:14:12;10.13;;;6.13;;
4915;SDS011;70796;52.406;13.230;2024-01-30T13:16:38;10.87;;;6.80;;
4915;SDS011;70796;52.406;13.230;2024-01-30T13:19:04;11.47;;;6.77;;
4915;SDS011;70796;52.406;13.230;2024-01-30T13:21:30;10.33;;;6.33;;
4915;SDS011;70796;52.406;13.230;2024-01-30T13:23:57;15.43;;;6.40;;
4915;SDS011;70796;52.406;13.230;2024-01-30T13:26:23;9.40;;;6.13;;
4915;SDS011;70796;52.406;13.230;2024-01-30T13:28:49;11.00;;;6.73;;
4915;SDS011;70796;52.406;13.230;2024-01-30T13:31:15;12.77;;;6.20;;
4915;SDS011;70796;52.406;13.230;2024-01-30T13:33:41;11.97;;;6.70;;
4915;SDS011;70796;52.406;13.230;2024-01-30T13:36:08;9.47;;;6.20;;
4915;SDS011;70796;52.406;13.230;2024-01-30T13:38:34;10.70;;;6.43;;
4915;SDS011;70796;52.406;13.230;2024-01-30T13:41:01;9.20;;;6.23;;
4915;SDS011;70796;52.406;13.230;2024-01-30T13:43:27;10.93;;;6.60;;
4915;SDS011;70796;52.406;13.230;2024-01-30T13:45:53;12.30;;;6.30;;
4915;SDS011;70796;52.406;13.230;2024-01-30T13:48:20;10.97;;;5.80;;
4915;SDS011;70796;52.406;13.230;2024-01-30T13:50:46;8.97;;;6.10;;
4915;SDS011;70796;52.406;13.230;2024-01-30T13:53:12;10.97;;;6.10;;
4915;SDS011;70796;52.406;13.230;2024-01-30T13:55:39;12.47;;;7.20;;
4915;SDS011;70796;52.406;13.230;2024-01-30T13:58:06;9.10;;;5.80;;
4915;SDS011;70796;52.406;13.230;2024-01-30T14:00:32;10.07;;;6.37;;
4915;SDS011;70796;52.406;13.230;2024-01-30T14:05:51;8.43;;;6.07;;
4915;SDS011;70796;52.406;13.230;2024-01-30T14:08:17;13.80;;;6.20;;
4915;SDS011;70796;52.406;13.230;2024-01-30T14:10:48;10.30;;;6.90;;
4915;SDS011;70796;52.406;13.230;2024-01-30T14:13:15;11.13;;;6.90;;
4915;SDS011;70796;52.406;13.230;2024-01-30T14:15:41;13.83;;;7.07;;
4915;SDS011;70796;52.406;13.230;2024-01-30T14:18:07;12.17;;;6.60;;
4915;SDS011;70796;52.406;13.230;2024-01-30T14:20:34;10.77;;;6.10;;
4915;SDS011;70796;52.406;13.230;2024-01-30T14:23:00;8.87;;;5.83;;
4915;SDS011;70796;52.406;13.230;2024-01-30T14:25:27;9.80;;;6.47;;
4915;SDS011;70796;52.406;13.230;2024-01-30T14:27:53;9.60;;;6.10;;
4915;SDS011;70796;52.406;13.230;2024-01-30T14:30:20;11.90;;;6.30;;
4915;SDS011;70796;52.406;13.230;2024-01-30T14:32:46;12.00;;;6.70;;
4915;SDS011;70796;52.406;13.230;2024-01-30T14:35:13;16.13;;;6.70;;
4915;SDS011;70796;52.406;13.230;2024-01-30T14:37:39;11.73;;;6.03;;
4915;SDS011;70796;52.406;13.230;2024-01-30T14:40:06;10.50;;;7.40;;
4915;SDS011;70796;52.406;13.230;2024-01-30T14:42:36;17.17;;;7.87;;
4915;SDS011;70796;52.406;13.230;2024-01-30T14:45:04;10.50;;;5.83;;
4915;SDS011;70796;52.406;13.230;2024-01-30T14:47:30;9.47;;;6.60;;